| Date | Flow CFS | Gauge Feet | Temp F |
|---|---|---|---|
| Date | Flow CFS | Gauge Feet | Temp F |
| 04/21/2026 21:15 | 4090 | 53.98 | 50.9 |
| 04/21/2026 20:15 | 4190 | 54.02 | 51.3 |
| 04/21/2026 18:15 | 4190 | 54.02 | 51.8 |
| 04/21/2026 17:15 | 4190 | 54.02 | 52 |
| 04/21/2026 16:15 | 4240 | 54.04 | 52 |
| 04/21/2026 15:15 | 4320 | 54.07 | 51.8 |
| 04/21/2026 14:15 | 4240 | 54.04 | 51.6 |
| 04/21/2026 13:15 | 4320 | 54.07 | 51.4 |
| 04/21/2026 12:15 | 4290 | 54.06 | 51.4 |
| 04/21/2026 11:15 | 4240 | 54.04 | 51.3 |
| 04/21/2026 10:15 | 4340 | 54.08 | 51.1 |
| 04/21/2026 09:15 | 4340 | 54.08 | 50.9 |
| 04/21/2026 08:15 | 4340 | 54.08 | 50.9 |
| 04/21/2026 07:15 | 4420 | 54.11 | 50.9 |
| 04/21/2026 06:15 | 4420 | 54.11 | 50.9 |
| 04/21/2026 05:15 | 4320 | 54.07 | 50.7 |
| 04/21/2026 03:15 | 4290 | 54.06 | 50.5 |
| 04/21/2026 02:15 | 4190 | 54.02 | 50.5 |
| 04/21/2026 01:15 | 4240 | 54.04 | 50.5 |
| 04/21/2026 00:15 | 4240 | 54.04 | 50.7 |
| 04/20/2026 22:15 | 4220 | 54.03 | 50.9 |
| 04/20/2026 21:15 | 4170 | 54.01 | 51.1 |
| 04/20/2026 20:15 | 4270 | 54.05 | 51.1 |
| 04/20/2026 19:15 | 4340 | 54.08 | 51.4 |
| 04/20/2026 18:15 | 4340 | 54.08 | 51.4 |
| 04/20/2026 16:15 | 4290 | 54.06 | 51.6 |
| 04/20/2026 14:15 | 4290 | 54.06 | |
| 04/20/2026 13:15 | 4320 | 54.07 | |
| 04/20/2026 12:15 | 4360 | 54.09 | |
| 04/20/2026 11:15 | 4240 | 54.04 | |
| 04/20/2026 10:15 | 4240 | 54.04 | |
| 04/20/2026 09:15 | 4290 | 54.06 | |
| 04/20/2026 08:15 | 4340 | 54.08 | 51.6 |
| 04/20/2026 07:15 | 4320 | 54.07 | 51.4 |
| 04/20/2026 06:15 | 4290 | 54.06 | 51.4 |
| 04/20/2026 05:15 | 4320 | 54.07 | 51.3 |
| 04/20/2026 04:15 | 4320 | 54.07 | 51.1 |
| 04/20/2026 03:15 | 4290 | 54.06 | 50.9 |
| 04/20/2026 02:15 | 4360 | 54.09 | 50.7 |
| 04/20/2026 01:15 | 54.07 | ||
| 04/20/2026 00:15 | 4270 | ||
| 04/19/2026 23:15 | 4320 | 54.07 | 50.7 |
| 04/19/2026 22:15 | 4360 | 54.09 | 50.9 |
| 04/19/2026 21:15 | 4420 | 54.11 | 51.1 |
| 04/19/2026 20:15 | 4320 | 54.07 | 51.4 |
| 04/19/2026 19:15 | 4420 | 54.11 | 51.8 |
| 04/19/2026 18:15 | 4390 | 54.1 | 52 |
| 04/19/2026 17:15 | 4340 | 54.08 | 52.3 |
| 04/19/2026 16:15 | 4440 | 54.12 | 52.7 |
| 04/19/2026 15:15 | 4320 | 54.07 | 52.9 |
| 04/19/2026 14:15 | 4390 | 54.1 | 52.9 |
| 04/19/2026 13:15 | 4340 | 54.08 | 52.5 |
| 04/19/2026 12:15 | 4420 | 54.11 | 52.2 |
| 04/19/2026 11:15 | 4420 | 54.11 | 51.8 |
| 04/19/2026 10:15 | 4390 | 54.1 | 51.6 |
| 04/19/2026 09:15 | 4390 | 54.1 | |
| 04/19/2026 08:15 | 4490 | 54.14 | 51.6 |
| 04/19/2026 07:15 | 4440 | 54.12 | 51.4 |
| 04/19/2026 05:15 | 4390 | 54.1 | 51.3 |
| 04/19/2026 04:15 | 4440 | 54.12 | 51.1 |
| 04/19/2026 03:15 | 4390 | 54.1 | 50.7 |
| 04/19/2026 02:15 | 4420 | 54.11 | 50.5 |
| 04/19/2026 01:15 | 4320 | 54.07 | 50.4 |
| 04/19/2026 00:15 | 4470 | 54.13 | |
| 04/18/2026 23:15 | 4470 | 54.13 | 50.4 |
| 04/18/2026 22:15 | 4490 | 54.14 | 50.5 |
| 04/18/2026 21:15 | 4540 | 54.16 | 50.7 |
| 04/18/2026 20:15 | 4540 | 54.16 | 51.1 |
| 04/18/2026 18:15 | 4520 | 54.15 | 51.8 |
| 04/18/2026 17:15 | 4720 | 54.23 | 52 |
| 04/18/2026 16:15 | 4640 | ||
| 04/18/2026 15:15 | 4670 | 54.21 | 51.6 |
| 04/18/2026 14:15 | 4670 | 54.21 | 51.3 |
| 04/18/2026 13:15 | 4620 | 54.19 | 50.7 |
| 04/18/2026 12:15 | 4570 | 54.17 | 50.2 |
| 04/18/2026 11:15 | 4720 | 54.23 | 49.6 |
| 04/18/2026 10:15 | 4640 | 54.2 | 49.3 |
| 04/18/2026 09:15 | 4830 | 54.27 | 48.9 |
| 04/18/2026 08:15 | 4700 | 54.22 | |
| 04/18/2026 06:15 | 4850 | 54.28 | 48.9 |
| 04/18/2026 03:15 | 4800 | 54.26 | 48.7 |
| 04/18/2026 02:15 | 4750 | 54.24 | 48.6 |
| 04/18/2026 01:15 | 4880 | 54.29 | 48.4 |
| 04/18/2026 00:15 | 4800 | 54.26 | 48.2 |
| 04/17/2026 22:15 | 4850 | 54.28 | |
| 04/17/2026 21:15 | 4850 | 54.28 | 48.2 |
| 04/17/2026 20:15 | 4880 | 54.29 | 48.6 |
| 04/17/2026 18:15 | 5010 | 54.34 | 49.3 |
| 04/17/2026 17:15 | 4980 | 54.33 | |
| 04/17/2026 15:15 | 4960 | 54.32 | 49.3 |
| 04/17/2026 14:15 | 54.39 | 48.7 | |
| 04/17/2026 13:15 | 5070 | ||
| 04/17/2026 12:15 | 5010 | 54.34 | 47.8 |
| 04/17/2026 11:15 | 5090 | 54.37 | 47.5 |
| 04/17/2026 10:15 | 5150 | 54.39 | 47.1 |
| 04/17/2026 09:15 | 5120 | 54.38 | 46.9 |
| 04/17/2026 08:15 | 5120 | 54.38 | 47.1 |
| 04/17/2026 07:15 | 5170 | 54.4 | 47.3 |
| 04/17/2026 06:15 | 47.5 | ||
| 04/17/2026 04:15 | 5170 | 54.4 | 47.7 |
| 04/17/2026 03:15 | 5260 | 54.43 | 47.5 |
| 04/17/2026 02:15 | 5090 | 54.37 | 47.3 |
| 04/17/2026 01:15 | 5230 | 54.42 | |
| 04/17/2026 00:15 | 5260 | 54.43 | |
| 04/16/2026 23:15 | 5150 | 54.39 | 47.3 |
| 04/16/2026 21:15 | 5230 | 54.42 | 47.7 |
| 04/16/2026 20:15 | 5280 | 54.44 | 48 |
| 04/16/2026 19:15 | 5280 | 54.44 | 48.4 |
| 04/16/2026 17:15 | 5390 | 54.48 | 48.7 |
| 04/16/2026 16:15 | 5450 | 54.5 | 48.6 |
| 04/16/2026 15:15 | 5450 | 54.5 | 48 |
| 04/16/2026 13:15 | 5530 | 54.53 | 47.3 |
| 04/16/2026 12:15 | 5620 | 54.56 | 46.9 |
| 04/16/2026 11:15 | 46.4 | ||
| 04/16/2026 10:15 | 5620 | 54.56 | 46 |
| 04/16/2026 09:15 | 5670 | 54.58 | 46 |
| 04/16/2026 08:15 | 5760 | 54.61 | 46.2 |
| 04/16/2026 07:15 | 5790 | 54.62 | 46.4 |
| 04/16/2026 06:15 | 5820 | 54.63 | 46.6 |
| 04/16/2026 04:15 | 5820 | 54.63 | 46.9 |
| 04/16/2026 03:15 | 5960 | 54.68 | 47.1 |
| 04/16/2026 02:15 | 5960 | 54.68 | 47.1 |
| 04/16/2026 01:15 | 6050 | 54.71 | 47.3 |
| 04/16/2026 00:15 | 5930 | 54.67 | 47.3 |
| 04/15/2026 22:15 | 6020 | 54.7 | 47.5 |
| 04/15/2026 21:15 | 5930 | 54.67 | 47.8 |
| 04/15/2026 20:15 | 5880 | 54.65 | 48 |
| 04/15/2026 19:15 | 5700 | 54.59 | 48.6 |
| 04/15/2026 18:15 | 5450 | 54.5 | 48.9 |
| 04/15/2026 17:15 | 5200 | 54.41 | 48.9 |
| 04/15/2026 16:15 | 5010 | 54.34 | 49.3 |
| 04/15/2026 15:15 | 4720 | 54.23 | 49.5 |
| 04/15/2026 14:15 | 4520 | 54.15 | 49.3 |
| 04/15/2026 13:15 | 4420 | 54.11 | 49.1 |
| 04/15/2026 11:15 | 4220 | 54.03 | 48.4 |
| 04/15/2026 10:15 | 4170 | 54.01 | |
| 04/15/2026 09:15 | 4090 | 53.98 | 48.4 |
| 04/15/2026 08:15 | 4000 | 53.94 | 48.6 |
| 04/15/2026 07:15 | 3900 | 53.9 | 48.4 |
| 04/15/2026 06:15 | 53.91 | 48.4 | |
| 04/15/2026 05:15 | 3930 | 53.91 | 48.2 |
| 04/15/2026 04:15 | 3880 | 53.89 | 48.2 |
| 04/15/2026 02:15 | 3810 | 53.86 | 47.8 |
| 04/15/2026 01:15 | 3860 | 53.88 | 47.7 |
| 04/15/2026 00:15 | 3830 | 53.87 | 47.8 |
| 04/14/2026 23:15 | 3860 | 53.88 | 47.8 |
| 04/14/2026 22:15 | 3830 | 53.87 | 48 |
| 04/14/2026 21:15 | 3900 | 53.9 | 48.2 |
| 04/14/2026 20:15 | 3900 | 53.9 | 48.4 |
| 04/14/2026 19:15 | 3930 | 53.91 | 48.7 |
| 04/14/2026 17:15 | 3930 | 53.91 | 49.3 |
| 04/14/2026 16:15 | 3860 | 53.88 | 49.5 |
| 04/14/2026 15:15 | 3880 | 53.89 | 49.6 |
| 04/14/2026 13:15 | 3880 | 53.89 | |
| 04/14/2026 12:15 | 3900 | 53.9 | 49.6 |
| 04/14/2026 11:15 | 3930 | 53.91 | 49.3 |
| 04/14/2026 10:15 | 3900 | 53.9 | 49.1 |
| 04/14/2026 09:15 | 3930 | 53.91 | 48.9 |
| 04/14/2026 08:15 | 3880 | 53.89 | 48.7 |
| 04/14/2026 07:15 | 3970 | 53.93 | 48.7 |
| 04/14/2026 06:15 | 3970 | 53.93 | 48.9 |
| 04/14/2026 05:15 | 3930 | 53.91 | |
| 04/14/2026 04:15 | 3970 | 53.93 | |
| 04/14/2026 03:15 | 3950 | 53.92 | 48.9 |
| 04/14/2026 02:15 | 49.1 | ||
| 04/14/2026 01:15 | 3950 | 53.92 | 49.1 |
| 04/14/2026 00:15 | 3860 | 53.88 | 49.3 |
| 04/13/2026 23:15 | 3900 | 53.9 | 49.6 |
| 04/13/2026 22:15 | 3950 | 53.92 | 49.8 |
| 04/13/2026 21:15 | 3930 | 53.91 | 50.2 |
| 04/13/2026 20:15 | 3860 | 53.88 | 50.4 |
| 04/13/2026 19:15 | 4020 | 53.95 | 50.7 |
| 04/13/2026 18:15 | 3950 | 53.92 | 51.1 |
| 04/13/2026 17:15 | 3900 | 53.9 | |
| 04/13/2026 16:15 | 3950 | 53.92 | |
| 04/13/2026 15:15 | 4020 | 53.95 | 51.1 |
| 04/13/2026 13:15 | 4000 | 53.94 | 50.9 |
| 04/13/2026 11:15 | 3950 | 53.92 | 50.5 |
| 04/13/2026 10:15 | 4020 | 53.95 | 50.4 |
| 04/13/2026 09:15 | 3970 | 53.93 | |
| 04/13/2026 08:15 | 3970 | 53.93 | |
| 04/13/2026 07:15 | 4000 | 53.94 | |
| 04/13/2026 06:15 | 4020 | 53.95 | 50.4 |
| 04/13/2026 05:15 | 4090 | 53.98 | 50.2 |
| 04/13/2026 04:15 | 3970 | 53.93 | 50.2 |
| 04/13/2026 03:15 | 4050 | 53.96 | 50 |
| 04/13/2026 02:15 | 4050 | 53.96 | |
| 04/13/2026 00:15 | 4170 | 54.01 | 50 |
| 04/12/2026 23:15 | 4020 | 53.95 | 50.2 |
| 04/12/2026 22:15 | 4070 | 53.97 | 50.4 |
| 04/12/2026 21:15 | 4090 | 53.98 | 50.5 |
| 04/12/2026 20:15 | 4120 | 53.99 | 50.9 |
| 04/12/2026 18:15 | 4220 | 54.03 | 51.1 |
| 04/12/2026 17:15 | 4090 | 53.98 | 51.3 |
| 04/12/2026 16:15 | 4170 | 54.01 | 51.4 |
| 04/12/2026 15:15 | 4240 | 54.04 | 51.3 |
| 04/12/2026 14:15 | 4290 | ||
| 04/12/2026 13:15 | 4270 | 54.05 | 50.7 |
| 04/12/2026 12:15 | 4220 | 54.03 | 50.5 |
| 04/12/2026 11:15 | 4290 | 54.06 | 50.5 |
| 04/12/2026 10:15 | 4290 | 54.06 | 50.7 |
| 04/12/2026 09:15 | 4320 | 54.07 | 50.7 |
| 04/12/2026 08:15 | 4290 | 54.06 | 50.9 |
| 04/12/2026 07:15 | 4340 | 54.08 | |
| 04/12/2026 06:15 | 4390 | 54.1 | |
| 04/12/2026 05:15 | 4420 | 54.11 | |
| 04/12/2026 04:15 | 4340 | 54.08 | 50.9 |
| 04/12/2026 03:15 | 4420 | 54.11 | 50.7 |
| 04/12/2026 02:15 | 4390 | 54.1 | |
| 04/12/2026 01:15 | 4420 | 54.11 | 50.7 |
| 04/12/2026 00:15 | 4270 | 54.05 | 50.9 |
| 04/11/2026 23:15 | 4270 | 54.05 | 51.1 |
| 04/11/2026 21:15 | 4090 | 53.98 | 51.8 |
| 04/11/2026 20:15 | 4000 | 53.94 | 52.2 |
| 04/11/2026 19:15 | 4020 | 53.95 | 52.5 |
| 04/11/2026 18:15 | 52.9 | ||
| 04/11/2026 17:15 | 4020 | 53.95 | 53.2 |
| 04/11/2026 16:15 | 3900 | 53.9 | 53.6 |
| 04/11/2026 15:15 | 3830 | 53.87 | 54 |
| 04/11/2026 13:15 | 3880 | 53.89 | 53.6 |
| 04/11/2026 12:15 | 3860 | 53.88 | 52.9 |
| 04/11/2026 11:15 | 3830 | 53.87 | 52.5 |
| 04/11/2026 10:15 | 3790 | 53.85 | 52.7 |
| 04/11/2026 09:15 | 3690 | 53.81 | 52.7 |
| 04/11/2026 08:15 | 3650 | 53.79 | 52.5 |
| 04/11/2026 07:15 | 3580 | 53.76 | 52.3 |
| 04/11/2026 06:15 | 3490 | 53.72 | 52.2 |
| 04/11/2026 03:15 | 3420 | 53.69 | 51.8 |
| 04/11/2026 02:15 | 3420 | 53.69 | 51.6 |
| 04/11/2026 01:15 | 3360 | 53.66 | 51.8 |
| 04/11/2026 00:15 | 53.65 | 52 | |
| 04/10/2026 23:15 | 3290 | 53.63 | 52.3 |
| 04/10/2026 22:15 | 3310 | 53.64 | 52.9 |
| 04/10/2026 21:15 | 3270 | 53.62 | 53.2 |
| 04/10/2026 20:15 | 3250 | 53.61 | 53.6 |
| 04/10/2026 18:15 | 3290 | 53.63 | 54.5 |
| 04/10/2026 17:15 | 3290 | 53.63 | 55 |
| 04/10/2026 16:15 | 3310 | 53.64 | 55.4 |
| 04/10/2026 15:15 | 3250 | 53.61 | 55.6 |
| 04/10/2026 14:15 | 3310 | 53.64 | 55 |
| 04/10/2026 13:15 | 3340 | 53.65 | 54.5 |
| 04/10/2026 12:15 | 3340 | 53.65 | 53.8 |
| 04/10/2026 11:15 | 3360 | 53.66 | 53.4 |
| 04/10/2026 10:15 | 3380 | 53.67 | 53.1 |
| 04/10/2026 09:15 | 3380 | 53.67 | 52.7 |
| 04/10/2026 08:15 | 3340 | 53.65 | 52.3 |
| 04/10/2026 07:15 | 3380 | 53.67 | 52.2 |
| 04/10/2026 06:15 | 3400 | 53.68 | 51.8 |
| 04/10/2026 05:15 | 3270 | 53.62 | 51.6 |
| 04/10/2026 03:15 | 3340 | 53.65 | 51.1 |
| 04/10/2026 02:15 | 3250 | 53.61 | |
| 04/10/2026 01:15 | 3360 | 53.66 | 51.1 |
| 04/10/2026 00:15 | 3290 | 53.63 | 51.4 |
| 04/09/2026 23:15 | 3270 | 53.62 | 52 |
| 04/09/2026 21:15 | 3250 | 53.61 | 52.9 |
| 04/09/2026 19:15 | 3250 | 53.61 | 54 |
| 04/09/2026 18:15 | 3270 | 53.62 | 54.5 |
| 04/09/2026 17:15 | 3250 | 53.61 | 55 |
| 04/09/2026 16:15 | 3230 | 53.6 | 55.2 |
| 04/09/2026 15:15 | 3270 | 53.62 | 55.4 |
| 04/09/2026 14:15 | 3290 | 53.63 | 55.2 |
| 04/09/2026 13:15 | 3270 | 53.62 | 54.5 |
| 04/09/2026 12:15 | 3230 | 53.6 | 53.8 |
| 04/09/2026 11:15 | 3290 | 53.63 | 52.9 |
| 04/09/2026 10:15 | 3250 | 53.61 | 52.2 |
| 04/09/2026 09:15 | 3290 | 53.63 | 51.4 |
| 04/09/2026 08:15 | 3290 | 53.63 | 51.1 |
| 04/09/2026 07:15 | 3270 | 53.62 | 50.7 |
| 04/09/2026 06:15 | 3270 | 53.62 | 50.5 |
| 04/09/2026 05:15 | 3310 | 53.64 | 50.4 |
| 04/09/2026 04:15 | 3270 | 53.62 | 50.2 |
| 04/09/2026 03:15 | 3230 | 53.6 | 50 |
| 04/09/2026 02:15 | 3310 | 53.64 | 50.2 |
| 04/09/2026 01:15 | 3290 | 53.63 | 50.4 |
| 04/09/2026 00:15 | 3290 | 53.63 | 50.5 |
| 04/08/2026 23:15 | 3340 | 53.65 | 51.1 |
| 04/08/2026 22:15 | 3310 | 53.64 | 51.6 |
| 04/08/2026 21:15 | 3270 | 53.62 | 52.3 |
| 04/08/2026 20:15 | 3290 | 53.63 | 52.9 |
| 04/08/2026 19:15 | 3310 | 53.64 | 53.4 |
| 04/08/2026 18:15 | 3340 | 53.65 | 53.8 |
| 04/08/2026 17:15 | 3270 | 53.62 | 54.1 |
| 04/08/2026 16:15 | 54.3 | ||
| 04/08/2026 15:15 | 3270 | 53.62 | 54.3 |
| 04/08/2026 14:15 | 3310 | 53.64 | 53.8 |
| 04/08/2026 13:15 | 3310 | 53.64 | 53.2 |
| 04/08/2026 12:15 | 3400 | 53.68 | 52.5 |
| 04/08/2026 11:15 | 3420 | 53.69 | 51.8 |
| 04/08/2026 10:15 | 3400 | 53.68 | 51.1 |
| 04/08/2026 09:15 | 3380 | 53.67 | 50.7 |
| 04/08/2026 08:15 | 3400 | 53.68 | 50.4 |
| 04/08/2026 07:15 | 3360 | 53.66 | 50.2 |
| 04/08/2026 05:15 | 3360 | 53.66 | 50 |
| 04/08/2026 03:15 | 3380 | 53.67 | 49.8 |
| 04/08/2026 01:15 | 3400 | 53.68 | 50.2 |
| 04/08/2026 00:15 | 3470 | 53.71 | 50.5 |
| 04/07/2026 23:15 | 3470 | 53.71 | 51.1 |
| 04/07/2026 22:15 | 3510 | 53.73 | 51.6 |
| 04/07/2026 21:15 | 3470 | 53.71 | 52.2 |
| 04/07/2026 20:15 | 3510 | 53.73 | 52.9 |
| 04/07/2026 19:15 | 3490 | 53.72 | 53.4 |
| 04/07/2026 18:15 | 3420 | 53.69 | 54.1 |
| 04/07/2026 17:15 | 3510 | 53.73 | 54.5 |
| 04/07/2026 16:15 | 3510 | 53.73 | 54.7 |
| 04/07/2026 15:15 | 3490 | 53.72 | 54.5 |
| 04/07/2026 14:15 | 3580 | 53.76 | 54.1 |
| 04/07/2026 13:15 | 3540 | 53.74 | 53.6 |
| 04/07/2026 12:15 | 3600 | 53.77 | 53.2 |
| 04/07/2026 11:15 | 3560 | 53.75 | 52.7 |
| 04/07/2026 10:15 | 3580 | 53.76 | 52.3 |
| 04/07/2026 09:15 | 52.2 | ||
| 04/07/2026 08:15 | 3580 | 53.76 | 52 |
| 04/07/2026 07:15 | 3510 | 53.73 | 51.8 |
| 04/07/2026 06:15 | 3580 | 53.76 | 51.8 |
| 04/07/2026 05:15 | 3580 | 53.76 | 51.6 |
| 04/07/2026 04:15 | 3600 | 53.77 | 51.4 |
| 04/07/2026 02:15 | 3580 | 53.76 | 51.4 |
| 04/07/2026 01:15 | 3580 | 53.76 | 51.6 |
| 04/07/2026 00:15 | 3560 | 53.75 | 51.8 |
| 04/06/2026 23:15 | 3580 | 53.76 | 52.2 |
| 04/06/2026 22:15 | 3600 | 53.77 | 52.7 |
| 04/06/2026 21:15 | 3600 | 53.77 | 53.2 |
| 04/06/2026 20:15 | 3650 | 53.79 | 53.8 |
| 04/06/2026 19:15 | 3580 | 53.76 | 54.5 |
| 04/06/2026 18:15 | 3650 | 53.79 | 55 |
| 04/06/2026 17:15 | 3670 | 53.8 | 55.4 |
| 04/06/2026 16:15 | 3630 | 53.78 | 55.4 |
| 04/06/2026 15:15 | 3740 | 53.83 | 55.2 |
| 04/06/2026 14:15 | 3720 | 53.82 | 54.9 |
| 04/06/2026 13:15 | 3720 | 53.82 | 54.3 |
| 04/06/2026 12:15 | 3760 | 53.84 | 53.8 |
| 04/06/2026 11:15 | 3740 | 53.83 | 53.1 |
| 04/06/2026 10:15 | 3740 | 53.83 | 52.3 |
| 04/06/2026 09:15 | 3690 | 53.81 | 51.8 |
| 04/06/2026 08:15 | 3760 | 53.84 | 51.4 |
| 04/06/2026 07:15 | 3790 | 53.85 | 51.4 |
| 04/06/2026 06:15 | 3740 | 53.83 | 51.3 |
| 04/06/2026 05:15 | 3760 | 53.84 | 51.1 |
| 04/06/2026 04:15 | 3740 | 53.83 | 51.1 |
| 04/06/2026 03:15 | 3790 | 53.85 | 50.9 |
| 04/06/2026 02:15 | 3720 | 53.82 | 50.7 |
| 04/06/2026 01:15 | 3790 | 53.85 | 50.9 |
| 04/05/2026 23:15 | 3880 | 53.89 | 51.3 |
| 04/05/2026 22:15 | 3830 | 53.87 | 51.6 |
| 04/05/2026 21:15 | 3860 | 53.88 | 52 |
| 04/05/2026 20:15 | 3830 | 53.87 | 52.5 |
| 04/05/2026 19:15 | 3880 | 53.89 | 53.1 |
| 04/05/2026 18:15 | 3900 | 53.9 | 53.4 |
| 04/05/2026 17:15 | 3880 | 53.89 | 53.8 |
| 04/05/2026 16:15 | 3860 | 53.88 | 53.8 |
| 04/05/2026 15:15 | 3860 | 53.88 | 53.6 |
| 04/05/2026 14:15 | 3950 | 53.92 | 53.2 |
| 04/05/2026 13:15 | 3930 | 53.91 | 52.9 |
| 04/05/2026 12:15 | 3930 | 53.91 | 52.5 |
| 04/05/2026 11:15 | 3970 | 53.93 | 51.8 |
| 04/05/2026 10:15 | 4020 | 53.95 | 51.4 |
| 04/05/2026 07:15 | 3950 | 53.92 | 50.7 |
| 04/05/2026 05:15 | 3970 | 53.93 | 50.4 |
| 04/05/2026 03:15 | 3930 | 53.91 | 49.8 |
| 04/05/2026 02:15 | 3950 | 53.92 | 49.6 |
| 04/05/2026 01:15 | 4000 | 53.94 | 49.6 |
| 04/04/2026 23:15 | 4050 | 53.96 | 49.8 |
| 04/04/2026 22:15 | 4050 | 53.96 | 50 |
| 04/04/2026 21:15 | 4090 | 53.98 | 50.5 |
| 04/04/2026 20:15 | 4020 | 53.95 | 50.9 |
| 04/04/2026 19:15 | 4120 | 53.99 | 51.3 |
| 04/04/2026 18:15 | 4070 | 53.97 | 51.8 |
| 04/04/2026 17:15 | 4070 | 53.97 | 52 |
| 04/04/2026 16:15 | 4090 | 53.98 | 52.2 |
| 04/04/2026 15:15 | 4120 | 53.99 | 52 |
| 04/04/2026 14:15 | 4120 | 53.99 | 51.4 |
| 04/04/2026 13:15 | 4050 | 53.96 | 51.1 |
| 04/04/2026 12:15 | 4140 | 54 | 50.5 |
| 04/04/2026 11:15 | 4220 | 54.03 | 50 |
| 04/04/2026 10:15 | 4170 | 54.01 | 49.5 |
| 04/04/2026 09:15 | 4240 | 54.04 | 49.3 |
| 04/04/2026 08:15 | 4220 | 54.03 | 48.9 |
| 04/04/2026 07:15 | 4190 | 54.02 | |
| 04/04/2026 06:15 | 4170 | 54.01 | |
| 04/04/2026 05:15 | 4140 | 54 | 48.9 |
| 04/04/2026 04:15 | 4140 | 54 | 48.7 |
| 04/04/2026 03:15 | 4220 | 54.03 | 48.6 |
| 04/04/2026 02:15 | 4190 | 54.02 | 48.4 |
| 04/04/2026 01:15 | 4220 | 54.03 | |
| 04/04/2026 00:15 | 4240 | 54.04 | 48.4 |
| 04/03/2026 23:15 | 48.6 | ||
| 04/03/2026 22:15 | 4240 | 54.04 | 48.7 |
| 04/03/2026 21:15 | 4320 | 54.07 | 48.9 |
| 04/03/2026 20:15 | 4470 | 54.13 | 49.3 |
| 04/03/2026 19:15 | 4360 | 54.09 | 49.5 |
| 04/03/2026 18:15 | 4540 | 54.16 | 49.8 |
| 04/03/2026 17:15 | 4590 | 54.18 | 50 |
| 04/03/2026 16:15 | 50 | ||
| 04/03/2026 15:15 | 4590 | 54.18 | 49.6 |
| 04/03/2026 14:15 | 4700 | 54.22 | 49.1 |
| 04/03/2026 13:15 | 4570 | 54.17 | 48.6 |
| 04/03/2026 12:15 | 4670 | 54.21 | 48 |
| 04/03/2026 11:15 | 4620 | 54.19 | 47.3 |
| 04/03/2026 10:15 | 4520 | 54.15 | 46.8 |
| 04/03/2026 06:15 | 4360 | 54.09 | 46.6 |
| 04/03/2026 05:15 | 4360 | 54.09 | |
| 04/03/2026 04:15 | 4420 | 54.11 | 46.6 |
| 04/03/2026 03:15 | 4390 | 54.1 | 46.4 |
| 04/03/2026 02:15 | 4360 | 54.09 | |
| 04/03/2026 01:15 | 4490 | 54.14 | |
| 04/03/2026 00:15 | 4340 | 54.08 | 46.4 |
| 04/02/2026 23:15 | 4320 | 54.07 | 46.8 |
| 04/02/2026 22:15 | 4340 | 54.08 | 46.9 |
| 04/02/2026 21:15 | 4440 | 54.12 | 47.1 |
| 04/02/2026 20:15 | 4390 | 54.1 | 47.7 |
| 04/02/2026 19:15 | 4390 | 54.1 | 48 |
| 04/02/2026 18:15 | 4420 | 54.11 | 48.2 |
| 04/02/2026 17:15 | 4440 | 54.12 | 48.4 |
| 04/02/2026 16:15 | 4420 | 54.11 | 48.7 |
| 04/02/2026 15:15 | 4440 | 54.12 | 48.6 |
| 04/02/2026 14:15 | 4360 | 54.09 | 48.2 |
| 04/02/2026 13:15 | 4390 | 54.1 | 47.7 |
| 04/02/2026 12:15 | 4440 | 54.12 | 47.3 |
| 04/02/2026 11:15 | 4340 | 54.08 | 46.8 |
| 04/02/2026 10:15 | 4420 | 54.11 | 46.6 |
| 04/02/2026 09:15 | 4270 | 54.05 | 46.4 |
| 04/02/2026 07:15 | 4290 | 54.06 | 46.6 |
| 04/02/2026 06:15 | 4090 | 53.98 | |
| 04/02/2026 05:15 | 3970 | 53.93 | |
| 04/02/2026 04:15 | 3930 | 53.91 | 46.6 |
| 04/02/2026 03:15 | 3930 | 53.91 | 46.8 |
| 04/02/2026 02:15 | 3810 | 53.86 | 46.8 |
| 04/02/2026 01:15 | 3830 | 53.87 | 46.9 |
| 04/01/2026 23:15 | 3650 | 53.79 | 47.3 |
| 04/01/2026 22:15 | 3670 | 53.8 | 47.7 |
| 04/01/2026 21:15 | 3670 | 53.8 | 47.8 |
| 04/01/2026 19:15 | 3510 | 53.73 | 48.6 |
| 04/01/2026 17:15 | 3510 | 53.73 | |
| 04/01/2026 16:15 | 3470 | 53.71 | |
| 04/01/2026 14:15 | 3400 | 53.68 | |
| 04/01/2026 13:15 | 3450 | 53.7 | 48.6 |
| 04/01/2026 12:15 | 3400 | 53.68 | 48.4 |
| 04/01/2026 11:15 | 3340 | 53.65 | 48.4 |
| 04/01/2026 10:15 | 48.2 | ||
| 04/01/2026 09:15 | 3340 | 53.65 | |
| 04/01/2026 08:15 | 3290 | 53.63 | |
| 04/01/2026 07:15 | 3290 | 53.63 | 48.2 |
| 04/01/2026 05:15 | 3250 | 53.61 | 48 |
| 04/01/2026 03:15 | 3290 | 53.63 | 48.2 |
| 04/01/2026 02:15 | 3250 | 53.61 | 48.2 |
| 04/01/2026 01:15 | 3250 | 53.61 | 48.4 |
| 04/01/2026 00:15 | 3270 | 53.62 | 48.4 |
| 03/31/2026 23:15 | 3250 | 53.61 | 48.6 |
| 03/31/2026 22:15 | 3290 | 53.63 | 48.7 |
| 03/31/2026 21:15 | 3290 | 53.63 | 49.1 |
| 03/31/2026 20:15 | 3340 | 53.65 | 49.3 |
| 03/31/2026 19:15 | 3360 | 53.66 | 49.6 |
| 03/31/2026 18:15 | 3450 | 53.7 | 50 |
| 03/31/2026 17:15 | 3470 | 53.71 | 50.2 |
| 03/31/2026 16:15 | 3470 | 53.71 | 50.2 |
| 03/31/2026 15:15 | 3420 | 53.69 | 50.4 |
| 03/31/2026 14:15 | 3450 | 53.7 | |
| 03/31/2026 13:15 | 3450 | 53.7 | 50.4 |
| 03/31/2026 12:15 | 3510 | 53.73 | 50 |
| 03/31/2026 11:15 | 3510 | 53.73 | 49.6 |
| 03/31/2026 10:15 | 3470 | 53.71 | 49.5 |
| 03/31/2026 09:15 | 3490 | 53.72 | 49.1 |
| 03/31/2026 08:15 | 3420 | 53.69 | 48.9 |
| 03/31/2026 07:15 | 3470 | 53.71 | 48.7 |
| 03/31/2026 05:15 | 3470 | 53.71 | 48.6 |
| 03/31/2026 04:15 | 3420 | 53.69 | 48.4 |
| 03/31/2026 03:15 | 3540 | 53.74 | 48.2 |
| 03/31/2026 02:15 | 3450 | 53.7 | |
| 03/31/2026 01:15 | 3470 | 53.71 | |
| 03/31/2026 00:15 | 3510 | 53.73 | 48.2 |
| 03/30/2026 23:15 | 3490 | 53.72 | 48.6 |
| 03/30/2026 22:15 | 3450 | 53.7 | 48.7 |
| 03/30/2026 21:15 | 3490 | 53.72 | 49.1 |
| 03/30/2026 20:15 | 3510 | 53.73 | 49.5 |
| 03/30/2026 19:15 | 3490 | 53.72 | 49.6 |
| 03/30/2026 18:15 | 3510 | 53.73 | 50 |
| 03/30/2026 17:15 | 3470 | 53.71 | 50.2 |
| 03/30/2026 16:15 | 3540 | 53.74 | 50.4 |
| 03/30/2026 15:15 | 3510 | 53.73 | 50.4 |
| 03/30/2026 14:15 | 3540 | 53.74 | 50.2 |
| 03/30/2026 12:15 | 3580 | 53.76 | 49.1 |
| 03/30/2026 11:15 | 3560 | 53.75 | 48.6 |
| 03/30/2026 10:15 | 3560 | 53.75 | 48.4 |
| 03/30/2026 08:15 | 3540 | 53.74 | 48 |
| 03/30/2026 07:15 | 3540 | 53.74 | |
| 03/30/2026 06:15 | 3470 | 53.71 | 48 |
| 03/30/2026 03:15 | 3510 | 53.73 | 47.8 |
| 03/30/2026 02:15 | 3560 | 53.75 | |
| 03/30/2026 01:15 | 3470 | 53.71 | |
| 03/30/2026 00:15 | 3540 | 53.74 | 47.8 |
| 03/29/2026 22:15 | 3470 | 53.71 | 48.4 |
| 03/29/2026 21:15 | 3560 | 53.75 | 48.9 |
| 03/29/2026 20:15 | 49.3 | ||
| 03/29/2026 19:15 | 49.8 | ||
| 03/29/2026 18:15 | 3560 | 53.75 | 50.2 |
| 03/29/2026 17:15 | 3600 | 53.77 | 50.4 |
| 03/29/2026 15:15 | 3580 | 53.76 | 50.4 |
| 03/29/2026 13:15 | 50.2 | ||
| 03/29/2026 12:15 | 3580 | 53.76 | 50.2 |
| 03/29/2026 11:15 | 3630 | 53.78 | 50 |
| 03/29/2026 10:15 | 3600 | 53.77 | 49.8 |
| 03/29/2026 09:15 | 3630 | 53.78 | 49.5 |
| 03/29/2026 08:15 | 3630 | 53.78 | 49.3 |
| 03/29/2026 06:15 | 3580 | 53.76 | 49.1 |
| 03/29/2026 05:15 | 3630 | 53.78 | 48.9 |
| 03/29/2026 04:15 | 3670 | 53.8 | 48.6 |
| 03/29/2026 03:15 | 3630 | 53.78 | 48.6 |
| 03/29/2026 02:15 | 3600 | 53.77 | 48.4 |
| 03/29/2026 01:15 | 3690 | 53.81 | 48.6 |
| 03/29/2026 00:15 | 3650 | 53.79 | 48.6 |
| 03/28/2026 22:15 | 3690 | 53.81 | 49.3 |
| 03/28/2026 21:15 | 3740 | 53.83 | 49.6 |
| 03/28/2026 20:15 | 3760 | 53.84 | 50.2 |
| 03/28/2026 18:15 | 3740 | 53.83 | 51.1 |
| 03/28/2026 17:15 | 3690 | 53.81 | 51.4 |
| 03/28/2026 16:15 | 3650 | 53.79 | 51.6 |
| 03/28/2026 14:15 | 3810 | 53.86 | 51.1 |
| 03/28/2026 13:15 | 3810 | ||
| 03/28/2026 12:15 | 3760 | 53.84 | 50.2 |
| 03/28/2026 11:15 | 3740 | 53.83 | 49.6 |
| 03/28/2026 10:15 | 3790 | 53.85 | 49.1 |
| 03/28/2026 09:15 | 3760 | 53.84 | 48.7 |
| 03/28/2026 08:15 | 3740 | 53.83 | 48.6 |
| 03/28/2026 07:15 | 48.4 | ||
| 03/28/2026 06:15 | 3810 | 53.86 | |
| 03/28/2026 05:15 | 3810 | 53.86 | 48.2 |
| 03/28/2026 03:15 | 3740 | 53.83 | 47.8 |
| 03/28/2026 02:15 | 3810 | 53.86 | 47.7 |
| 03/28/2026 01:15 | 3810 | 53.86 | 47.7 |
| 03/28/2026 00:15 | 3880 | 53.89 | 47.8 |
| 03/27/2026 23:15 | 3830 | 53.87 | 48 |
| 03/27/2026 22:15 | 3830 | 53.87 | 48.4 |
| 03/27/2026 21:15 | 3810 | 53.86 | 48.9 |
| 03/27/2026 20:15 | 3790 | 53.85 | 49.3 |
| 03/27/2026 19:15 | 3860 | 53.88 | 49.8 |
| 03/27/2026 18:15 | 3760 | 53.84 | 50.2 |
| 03/27/2026 17:15 | 3810 | 53.86 | 50.4 |
| 03/27/2026 16:15 | 3760 | 53.84 | 50.4 |
| 03/27/2026 15:15 | 3880 | 53.89 | 50.2 |
| 03/27/2026 14:15 | 3810 | 53.86 | 49.8 |
| 03/27/2026 13:15 | 3790 | 53.85 | 49.3 |
| 03/27/2026 12:15 | 3930 | 53.91 | 48.7 |
| 03/27/2026 11:15 | 3880 | 53.89 | 48.2 |
| 03/27/2026 10:15 | 3900 | 53.9 | 47.8 |
| 03/27/2026 09:15 | 3930 | 53.91 | |
| 03/27/2026 07:15 | 3930 | 53.91 | 47.8 |
| 03/27/2026 06:15 | 3880 | 53.89 | 47.7 |
| 03/27/2026 04:15 | 3970 | 53.93 | 47.5 |
| 03/27/2026 03:15 | 3970 | 53.93 | |
| 03/27/2026 02:15 | 4020 | 53.95 | |
| 03/27/2026 01:15 | 4000 | 53.94 | 47.5 |
| 03/26/2026 23:15 | 3970 | 53.93 | 47.8 |
| 03/26/2026 22:15 | 4000 | 53.94 | 48 |
| 03/26/2026 21:15 | 4000 | 53.94 | 48.4 |
| 03/26/2026 20:15 | 4140 | 54 | 48.7 |
| 03/26/2026 19:15 | 4020 | 53.95 | 49.1 |
| 03/26/2026 18:15 | 3970 | 53.93 | 49.5 |
| 03/26/2026 17:15 | 4140 | 54 | 49.6 |
| 03/26/2026 15:15 | 4170 | 54.01 | 49.5 |
| 03/26/2026 14:15 | 4020 | 53.95 | 49.1 |
| 03/26/2026 13:15 | 4170 | 54.01 | 48.6 |
| 03/26/2026 12:15 | 4170 | 54.01 | 48.2 |
| 03/26/2026 11:15 | 4140 | 54 | 47.7 |
| 03/26/2026 10:15 | 4190 | 54.02 | 47.3 |
| 03/26/2026 08:15 | 4190 | 54.02 | 47.1 |
| 03/26/2026 07:15 | 4170 | 54.01 | 47.1 |
| 03/26/2026 05:15 | 4220 | 54.03 | 47.7 |
| 03/26/2026 04:15 | 4190 | 54.02 | 47.8 |
| 03/26/2026 03:15 | 47.8 | ||
| 03/26/2026 02:15 | 48.2 | ||
| 03/26/2026 01:15 | 4190 | 54.02 | 48.4 |
| 03/26/2026 00:15 | 4340 | 54.08 | 48.6 |
| 03/25/2026 22:15 | 4360 | 54.09 | 48.9 |
| 03/25/2026 21:15 | 4360 | 54.09 | 49.3 |
| 03/25/2026 20:15 | 4420 | 54.11 | 49.6 |
| 03/25/2026 18:15 | 4490 | 54.14 | 50.2 |
| 03/25/2026 17:15 | 4420 | 54.11 | 50.5 |
| 03/25/2026 16:15 | 4470 | 54.13 | 50.7 |
| 03/25/2026 15:15 | 4520 | 54.15 | 50.7 |
| 03/25/2026 13:15 | 4440 | 54.12 | 49.6 |
| 03/25/2026 12:15 | 4440 | 54.12 | 49.3 |
| 03/25/2026 11:15 | 4520 | 54.15 | 48.9 |
| 03/25/2026 10:15 | 4470 | 54.13 | 48.6 |
| 03/25/2026 09:15 | 4390 | 54.1 | 48.4 |
| 03/25/2026 08:15 | 4440 | 54.12 | |
| 03/25/2026 06:15 | 4290 | 54.06 | |
| 03/25/2026 05:15 | 4290 | 54.06 | |
| 03/25/2026 04:15 | 4270 | 54.05 | |
| 03/25/2026 03:15 | 4140 | 54 | |
| 03/25/2026 02:15 | 4170 | 54.01 | |
| 03/25/2026 01:15 | 4090 | 53.98 | |
| 03/25/2026 00:15 | 4020 | 53.95 | |
| 03/24/2026 23:15 | 3950 | 53.92 | |
| 03/24/2026 22:15 | 3970 | 53.93 | 48.4 |
| 03/24/2026 21:15 | 3880 | 53.89 | 48.6 |
| 03/24/2026 20:15 | 3810 | 53.86 | 48.6 |
| 03/24/2026 19:15 | 3790 | 53.85 | 48.7 |
| 03/24/2026 17:15 | 3790 | 53.85 | 49.1 |
| 03/24/2026 16:15 | 3760 | 53.84 | 49.5 |
| 03/24/2026 14:15 | 3740 | 53.83 | 49.6 |
| 03/24/2026 13:15 | 3810 | 53.86 | 49.8 |
| 03/24/2026 12:15 | 3790 | 53.85 | 50 |
| 03/24/2026 11:15 | 3860 | 53.88 | |
| 03/24/2026 10:15 | 3860 | 53.88 | |
| 03/24/2026 09:15 | 3880 | 53.89 | 50 |
| 03/24/2026 08:15 | 3810 | 53.86 | 49.8 |
| 03/24/2026 07:15 | 3830 | 53.87 | 49.6 |
| 03/24/2026 06:15 | 49.5 | ||
| 03/24/2026 05:15 | 49.1 | ||
| 03/24/2026 03:15 | 3830 | 53.87 | 48.6 |
| 03/24/2026 02:15 | 3880 | 53.89 | 48.4 |
| 03/24/2026 00:15 | 48.2 | ||
| 03/23/2026 23:15 | 3880 | 53.89 | 48.2 |
| 03/23/2026 22:15 | 3950 | 53.92 | 48.4 |
| 03/23/2026 21:15 | 3950 | 53.92 | 48.6 |
| 03/23/2026 20:15 | 3900 | 53.9 | 48.9 |
| 03/23/2026 19:15 | 3970 | 53.93 | 49.1 |
| 03/23/2026 18:15 | 3950 | 53.92 | 49.5 |
| 03/23/2026 17:15 | 3950 | 53.92 | 49.8 |
| 03/23/2026 16:15 | 4000 | 53.94 | 50 |
| 03/23/2026 15:15 | 3900 | 53.9 | 49.8 |
| 03/23/2026 14:15 | 49.6 | ||
| 03/23/2026 13:15 | 3930 | 53.91 | |
| 03/23/2026 12:15 | 3950 | 53.92 | 48.7 |
| 03/23/2026 11:15 | 4050 | 53.96 | 48.2 |
| 03/23/2026 10:15 | 4000 | 53.94 | 47.7 |
| 03/23/2026 09:15 | 4070 | 53.97 | 47.3 |
| 03/23/2026 08:15 | 4020 | 53.95 | |
| 03/23/2026 07:15 | 4000 | 53.94 | |
| 03/23/2026 06:15 | 4000 | 53.94 | 47.3 |
| 03/23/2026 03:15 | 4020 | 53.95 | 47.1 |
| 03/23/2026 02:15 | 4020 | 53.95 | 46.9 |
| 03/23/2026 01:15 | 4070 | 53.97 | 46.9 |
| 03/23/2026 00:15 | 3970 | 53.93 | 47.1 |
| 03/22/2026 22:15 | 4170 | 54.01 | 47.5 |